createdAt,value
2018-07-05T00:00:43.178Z,47.67
2018-07-05T00:03:30.950Z,48.27
2018-07-05T00:06:18.238Z,50.17
2018-07-05T00:09:06.247Z,50.83
2018-07-05T00:11:53.685Z,51.40
2018-07-05T00:14:41.302Z,49.00
2018-07-05T00:17:29.022Z,53.77
2018-07-05T00:20:16.699Z,49.33
2018-07-05T00:23:04.127Z,55.47
2018-07-05T00:25:51.867Z,49.90
2018-07-05T00:28:39.216Z,50.93
2018-07-05T00:31:26.747Z,49.47
2018-07-05T00:34:14.271Z,51.00
2018-07-05T00:37:02.118Z,48.30
2018-07-05T00:39:49.443Z,52.20
2018-07-05T00:42:38.945Z,53.00
2018-07-05T00:45:26.194Z,50.67
2018-07-05T00:48:13.928Z,52.80
2018-07-05T00:50:55.508Z,51.03
2018-07-05T00:53:43.367Z,51.97
2018-07-05T00:56:30.889Z,48.00
2018-07-05T00:59:18.426Z,48.80
2018-07-05T01:02:05.749Z,50.27
2018-07-05T01:04:47.378Z,49.63
2018-07-05T01:07:34.557Z,47.20
2018-07-05T01:10:16.181Z,47.50
2018-07-05T01:13:03.619Z,48.93
2018-07-05T01:15:51.278Z,49.77
2018-07-05T01:18:38.561Z,48.33
2018-07-05T01:21:26.111Z,48.00
2018-07-05T01:24:13.621Z,48.97
2018-07-05T01:27:01.729Z,49.00
2018-07-05T01:29:49.161Z,46.10
2018-07-05T01:32:37.063Z,46.23
2018-07-05T01:35:24.359Z,45.63
2018-07-05T01:38:11.778Z,47.10
2018-07-05T01:41:03.118Z,46.10
2018-07-05T01:44:00.323Z,45.70
2018-07-05T01:46:48.099Z,43.30
2018-07-05T01:49:35.628Z,42.67
2018-07-05T01:52:22.914Z,44.13
2018-07-05T01:55:10.411Z,44.80
2018-07-05T01:57:57.811Z,41.80
2018-07-05T02:00:45.560Z,42.47
2018-07-05T02:03:32.721Z,40.73
2018-07-05T02:06:20.363Z,43.47
2018-07-05T02:09:07.782Z,41.50
2018-07-05T02:11:55.583Z,42.80
2018-07-05T02:14:42.926Z,41.00
2018-07-05T02:17:30.455Z,43.53
2018-07-05T02:20:12.143Z,44.60
2018-07-05T02:23:00.131Z,41.00
2018-07-05T02:25:47.422Z,42.90
2018-07-05T02:28:35.072Z,39.90
2018-07-05T02:31:22.514Z,42.20
2018-07-05T02:34:11.222Z,43.33
2018-07-05T02:36:58.545Z,44.57
2018-07-05T02:39:50.033Z,41.77
2018-07-05T02:42:37.228Z,42.60
2018-07-05T02:45:26.639Z,39.57
2018-07-05T02:48:13.934Z,40.60
2018-07-05T02:51:01.607Z,42.10
2018-07-05T02:53:48.967Z,41.43
2018-07-05T02:56:36.479Z,40.70
2018-07-05T02:59:23.587Z,41.10
2018-07-05T03:02:11.283Z,40.40
2018-07-05T03:04:58.570Z,40.70
2018-07-05T03:07:46.234Z,39.17
2018-07-05T03:10:27.875Z,41.93
2018-07-05T03:14:08.727Z,38.67
2018-07-05T03:16:56.131Z,37.43
2018-07-05T03:19:43.808Z,37.90
2018-07-05T03:22:31.049Z,36.23
2018-07-05T03:25:18.478Z,36.00
2018-07-05T03:28:05.701Z,32.53
2018-07-05T03:30:53.133Z,35.57
2018-07-05T03:33:40.458Z,34.67
2018-07-05T03:36:28.654Z,33.73
2018-07-05T03:39:15.918Z,30.67
2018-07-05T03:42:03.409Z,32.00
2018-07-05T03:44:50.923Z,32.60
2018-07-05T03:47:40.654Z,29.67
2018-07-05T03:50:28.113Z,31.70
2018-07-05T03:53:15.659Z,29.03
2018-07-05T03:56:03.034Z,29.47
2018-07-05T03:58:50.710Z,30.07
2018-07-05T04:01:38.198Z,29.20
2018-07-05T04:04:25.768Z,33.47
2018-07-05T04:07:13.265Z,28.10
2018-07-05T04:10:00.691Z,27.37
2018-07-05T04:12:48.033Z,27.67
2018-07-05T04:15:35.855Z,27.73
2018-07-05T04:18:23.375Z,28.50
2018-07-05T04:21:11.145Z,31.17
2018-07-05T04:23:52.599Z,31.00
2018-07-05T04:26:40.149Z,29.90
2018-07-05T04:29:27.381Z,28.47
2018-07-05T04:32:15.060Z,30.10
2018-07-05T04:35:02.409Z,29.90
2018-07-05T04:37:49.806Z,28.67
2018-07-05T04:40:37.063Z,26.53
2018-07-05T04:43:24.630Z,26.37
2018-07-05T04:46:11.814Z,26.90
2018-07-05T04:49:00.208Z,27.10
2018-07-05T04:51:47.742Z,26.00
2018-07-05T04:54:35.626Z,27.63
2018-07-05T04:57:23.164Z,28.10
2018-07-05T05:00:10.998Z,27.73
2018-07-05T05:02:58.318Z,27.87
2018-07-05T05:05:45.851Z,28.30
2018-07-05T05:08:33.070Z,27.53
2018-07-05T05:11:20.603Z,26.20
2018-07-05T05:14:07.924Z,26.27
2018-07-05T05:16:49.796Z,24.23
2018-07-05T05:19:37.432Z,25.48
2018-07-05T05:22:25.341Z,23.42
2018-07-05T05:25:12.815Z,23.62
2018-07-05T05:28:00.762Z,24.20
2018-07-05T05:30:42.342Z,24.57
2018-07-05T05:33:29.838Z,24.77
2018-07-05T05:36:17.152Z,27.40
2018-07-05T05:39:05.027Z,26.33
2018-07-05T05:41:52.445Z,28.77
2018-07-05T05:44:34.353Z,28.05
2018-07-05T05:47:21.602Z,26.27
2018-07-05T05:50:09.870Z,27.42
2018-07-05T05:52:57.147Z,27.73
2018-07-05T05:55:44.554Z,26.07
2018-07-05T05:58:31.703Z,25.00
2018-07-05T06:01:19.334Z,27.67
2018-07-05T06:04:06.764Z,26.23
2018-07-05T06:06:54.427Z,25.88
2018-07-05T06:09:41.853Z,24.67
2018-07-05T06:12:29.521Z,25.57
2018-07-05T06:15:16.952Z,25.43
2018-07-05T06:18:04.440Z,27.20
2018-07-05T06:20:51.942Z,23.12
2018-07-05T06:23:39.262Z,24.98
2018-07-05T06:26:26.482Z,26.57
2018-07-05T06:29:14.317Z,25.12
2018-07-05T06:32:01.579Z,26.33
2018-07-05T06:34:48.843Z,24.75
2018-07-05T06:37:36.321Z,24.75
2018-07-05T06:40:23.856Z,25.80
2018-07-05T06:43:11.355Z,28.83
2018-07-05T06:45:58.993Z,28.30
2018-07-05T06:48:46.313Z,28.50
2018-07-05T06:51:35.380Z,29.63
2018-07-05T06:54:22.692Z,29.92
2018-07-05T06:57:10.699Z,28.95
2018-07-05T06:59:57.877Z,32.53
2018-07-05T07:02:39.406Z,31.40
2018-07-05T07:05:26.849Z,28.85
2018-07-05T07:08:14.336Z,30.10
2018-07-05T07:11:01.763Z,28.95
2018-07-05T07:13:49.438Z,29.45
2018-07-05T07:16:36.824Z,29.87
2018-07-05T07:19:24.341Z,31.23
2018-07-05T07:22:11.739Z,30.72
2018-07-05T07:24:59.203Z,27.27
2018-07-05T07:27:46.391Z,30.27
2018-07-05T07:30:34.023Z,28.57
2018-07-05T07:33:15.438Z,28.55
2018-07-05T07:36:03.021Z,28.77
2018-07-05T07:38:50.253Z,27.90
2018-07-05T07:41:37.923Z,26.55
2018-07-05T07:44:10.870Z,25.30
2018-07-05T07:46:39.979Z,27.67
2018-07-05T07:49:08.967Z,25.88
2018-07-05T07:51:38.811Z,26.12
2018-07-05T07:54:07.963Z,25.48
2018-07-05T07:56:36.920Z,26.12
2018-07-05T07:59:05.802Z,26.85
2018-07-05T08:01:35.064Z,25.88
2018-07-05T08:04:03.989Z,24.37
2018-07-05T08:06:32.899Z,27.40
2018-07-05T08:09:02.025Z,25.68
2018-07-05T08:11:31.004Z,24.43
2018-07-05T08:13:59.978Z,24.67
2018-07-05T08:16:29.385Z,23.45
2018-07-05T08:18:58.630Z,22.25
2018-07-05T08:21:27.807Z,22.05
2018-07-05T08:23:57.144Z,22.13
2018-07-05T08:26:26.243Z,20.60
2018-07-05T08:28:55.243Z,22.22
2018-07-05T08:31:24.546Z,22.35
2018-07-05T08:33:53.622Z,22.00
2018-07-05T08:36:23.194Z,22.93
2018-07-05T08:38:52.541Z,20.27
2018-07-05T08:41:21.647Z,21.80
2018-07-05T08:43:50.979Z,23.35
2018-07-05T08:46:20.438Z,21.00
2018-07-05T08:48:49.873Z,20.32
2018-07-05T08:51:18.972Z,20.20
2018-07-05T08:53:49.827Z,19.57
2018-07-05T08:56:18.982Z,18.80
2018-07-05T08:58:48.031Z,20.05
2018-07-05T09:01:17.079Z,20.35
2018-07-05T09:03:46.272Z,18.62
2018-07-05T09:06:15.425Z,19.48
2018-07-05T09:08:44.509Z,17.55
2018-07-05T09:11:13.511Z,19.27
2018-07-05T09:13:42.405Z,19.20
2018-07-05T09:16:11.482Z,18.85
2018-07-05T09:18:40.395Z,21.00
2018-07-05T09:21:09.376Z,17.98
2018-07-05T09:23:38.617Z,17.82
2018-07-05T09:26:07.547Z,16.87
2018-07-05T09:28:36.579Z,18.57
2018-07-05T09:31:05.665Z,19.35
2018-07-05T09:33:34.597Z,19.48
2018-07-05T09:36:03.706Z,19.25
2018-07-05T09:38:32.940Z,18.07
2018-07-05T09:41:01.855Z,19.05
2018-07-05T09:43:30.834Z,19.57
2018-07-05T09:45:59.833Z,19.27
2018-07-05T09:48:28.860Z,17.98
2018-07-05T09:50:57.813Z,24.72
2018-07-05T09:53:27.024Z,25.48
2018-07-05T09:55:57.102Z,27.67
2018-07-05T09:58:26.309Z,26.40
2018-07-05T10:00:55.479Z,27.00
2018-07-05T10:03:24.638Z,25.88
2018-07-05T10:05:53.543Z,26.20
2018-07-05T10:08:22.795Z,25.68
2018-07-05T10:10:51.610Z,27.42
2018-07-05T10:13:20.761Z,24.77
2018-07-05T10:15:49.752Z,25.88
2018-07-05T10:18:18.711Z,27.27
2018-07-05T10:20:47.541Z,25.55
2018-07-05T10:23:16.837Z,27.98
2018-07-05T10:25:46.603Z,24.18
2018-07-05T10:28:15.774Z,26.75
2018-07-05T10:30:58.280Z,24.92
2018-07-05T10:33:46.122Z,24.92
2018-07-05T10:36:15.354Z,27.25
2018-07-05T10:38:44.415Z,23.05
2018-07-05T10:41:20.402Z,25.17
2018-07-05T10:44:07.798Z,24.07
2018-07-05T10:46:55.264Z,27.15
2018-07-05T10:49:42.579Z,26.20
2018-07-05T10:52:30.292Z,26.75
2018-07-05T10:55:17.690Z,25.17
2018-07-05T10:58:06.146Z,28.70
2018-07-05T11:00:47.758Z,25.90
2018-07-05T11:03:35.491Z,25.23
2018-07-05T11:06:22.919Z,27.52
2018-07-05T11:09:11.014Z,27.50
2018-07-05T11:11:58.772Z,28.17
2018-07-05T11:14:46.498Z,27.13
2018-07-05T11:17:34.081Z,26.33
2018-07-05T11:20:21.695Z,28.03
2018-07-05T11:23:09.118Z,28.20
2018-07-05T11:25:57.544Z,28.00
2018-07-05T11:28:45.076Z,26.60
2018-07-05T11:31:32.724Z,26.43
2018-07-05T11:34:20.153Z,27.67
2018-07-05T11:37:07.783Z,25.35
2018-07-05T11:39:55.306Z,25.82
2018-07-05T11:42:42.990Z,25.40
2018-07-05T11:45:30.474Z,25.03
2018-07-05T11:48:18.017Z,28.60
2018-07-05T11:51:05.534Z,25.83
2018-07-05T11:53:53.098Z,25.67
2018-07-05T11:56:40.386Z,23.40
2018-07-05T11:59:28.870Z,24.43
2018-07-05T12:02:10.350Z,24.73
2018-07-05T12:04:57.982Z,24.97
2018-07-05T12:07:45.310Z,23.47
2018-07-05T12:10:32.867Z,24.07
2018-07-05T12:13:20.366Z,26.07
2018-07-05T12:16:08.287Z,22.83
2018-07-05T12:18:55.402Z,22.20
2018-07-05T12:21:43.029Z,22.53
2018-07-05T12:24:30.256Z,23.50
2018-07-05T12:27:17.504Z,24.33
2018-07-05T12:30:04.573Z,21.83
2018-07-05T12:32:51.999Z,22.40
2018-07-05T12:35:39.118Z,20.93
2018-07-05T12:38:26.546Z,23.13
2018-07-05T12:41:13.566Z,23.63
2018-07-05T12:44:01.041Z,22.60
2018-07-05T12:46:42.529Z,22.87
2018-07-05T12:49:29.927Z,22.30
2018-07-05T12:52:18.900Z,24.00
2018-07-05T12:55:06.218Z,23.73
2018-07-05T12:57:53.745Z,22.33
2018-07-05T13:00:42.947Z,22.83
2018-07-05T13:03:24.382Z,24.23
2018-07-05T13:06:11.786Z,22.73
2018-07-05T13:08:59.206Z,23.60
2018-07-05T13:11:46.855Z,22.57
2018-07-05T13:14:34.190Z,22.67
2018-07-05T13:17:21.931Z,22.40
2018-07-05T13:20:09.637Z,21.80
2018-07-05T13:22:57.437Z,20.70
2018-07-05T13:25:44.757Z,21.10
2018-07-05T13:28:32.681Z,23.07
2018-07-05T13:31:20.099Z,22.30
2018-07-05T13:34:07.795Z,20.97
2018-07-05T13:36:55.099Z,23.77
2018-07-05T13:39:42.553Z,22.20
2018-07-05T13:42:29.812Z,21.60
2018-07-05T13:45:17.597Z,22.63
2018-07-05T13:48:07.570Z,19.67
2018-07-05T13:50:55.054Z,19.37
2018-07-05T13:53:42.152Z,20.77
2018-07-05T13:56:29.567Z,20.80
2018-07-05T13:59:16.859Z,21.27
2018-07-05T14:02:05.496Z,19.80
2018-07-05T14:04:52.801Z,19.80
2018-07-05T14:07:40.650Z,20.10
2018-07-05T14:10:27.961Z,19.90
2018-07-05T14:13:15.727Z,18.63
2018-07-05T14:16:03.133Z,19.77
2018-07-05T14:18:50.735Z,18.10
2018-07-05T14:21:37.977Z,21.30
2018-07-05T14:24:25.646Z,20.07
2018-07-05T14:27:12.965Z,20.53
2018-07-05T14:30:00.364Z,22.43
2018-07-05T14:32:41.643Z,21.13
2018-07-05T14:35:28.975Z,20.90
2018-07-05T14:38:16.294Z,20.57
2018-07-05T14:41:04.903Z,21.27
2018-07-05T14:43:52.536Z,20.40
2018-07-05T14:46:40.002Z,22.27
2018-07-05T14:49:27.563Z,19.23
2018-07-05T14:52:15.295Z,20.70
2018-07-05T14:55:02.778Z,21.27
2018-07-05T14:57:50.954Z,19.33
2018-07-05T15:00:38.264Z,20.50
2018-07-05T15:03:27.253Z,21.67
2018-07-05T15:06:14.664Z,21.10
2018-07-05T15:09:02.575Z,18.30
2018-07-05T15:11:50.206Z,21.43
2018-07-05T15:14:37.959Z,20.10
2018-07-05T15:17:25.414Z,20.80
2018-07-05T15:20:12.915Z,21.67
2018-07-05T15:22:54.329Z,19.93
2018-07-05T15:25:42.146Z,20.77
2018-07-05T15:28:29.292Z,21.57
2018-07-05T15:31:16.638Z,20.57
2018-07-05T15:34:03.581Z,20.60
2018-07-05T15:36:50.693Z,20.97
2018-07-05T15:39:37.820Z,20.50
2018-07-05T15:42:24.836Z,21.93
2018-07-05T15:45:11.957Z,25.73
2018-07-05T15:47:59.485Z,26.90
2018-07-05T15:50:46.605Z,27.43
2018-07-05T15:53:34.078Z,28.43
2018-07-05T15:56:21.097Z,29.10
2018-07-05T15:59:08.476Z,33.63
2018-07-05T16:01:55.543Z,34.50
2018-07-05T16:04:43.947Z,34.03
2018-07-05T16:07:31.006Z,33.70
2018-07-05T16:10:18.470Z,31.43
2018-07-05T16:13:05.200Z,30.70
2018-07-05T16:15:52.525Z,31.37
2018-07-05T16:18:39.751Z,28.60
2018-07-05T16:21:27.073Z,30.47
2018-07-05T16:24:14.044Z,29.77
2018-07-05T16:27:03.307Z,30.27
2018-07-05T16:29:50.170Z,26.10
2018-07-05T16:32:37.548Z,26.23
2018-07-05T16:35:24.630Z,25.10
2018-07-05T16:38:11.940Z,25.00
2018-07-05T16:40:59.160Z,27.57
2018-07-05T16:43:46.231Z,24.37
2018-07-05T16:46:33.196Z,23.70
2018-07-05T16:49:20.330Z,23.50
2018-07-05T16:52:07.438Z,23.00
2018-07-05T16:54:55.167Z,24.13
2018-07-05T16:57:42.515Z,23.10
2018-07-05T17:00:30.323Z,21.90
2018-07-05T17:03:17.675Z,20.90
2018-07-05T17:06:06.768Z,20.33
2018-07-05T17:08:54.129Z,22.73
2018-07-05T17:11:41.531Z,21.60
2018-07-05T17:14:28.910Z,20.60
2018-07-05T17:17:16.658Z,21.07
2018-07-05T17:20:03.923Z,20.97
2018-07-05T17:22:51.429Z,20.83
2018-07-05T17:25:38.866Z,22.40
2018-07-05T17:28:26.954Z,21.77
2018-07-05T17:31:14.664Z,21.73
2018-07-05T17:34:02.343Z,21.90
2018-07-05T17:36:49.691Z,20.10
2018-07-05T17:39:37.297Z,20.90
2018-07-05T17:42:24.652Z,21.20
2018-07-05T17:45:12.258Z,21.73
2018-07-05T17:47:53.767Z,18.70
2018-07-05T17:50:41.614Z,21.07
2018-07-05T17:53:29.011Z,20.57
2018-07-05T17:56:16.566Z,18.73
2018-07-05T17:59:04.005Z,20.63
2018-07-05T18:01:51.558Z,19.40
2018-07-05T18:04:38.710Z,20.33
2018-07-05T18:07:27.254Z,21.20
2018-07-05T18:10:14.719Z,22.10
2018-07-05T18:13:02.321Z,20.07
2018-07-05T18:15:49.671Z,20.33
2018-07-05T18:18:37.386Z,20.80
2018-07-05T18:21:24.706Z,20.27
2018-07-05T18:24:12.541Z,20.30
2018-07-05T18:26:59.997Z,19.70
2018-07-05T18:29:47.794Z,20.93
2018-07-05T18:32:35.175Z,18.80
2018-07-05T18:35:22.728Z,20.33
2018-07-05T18:38:10.190Z,19.27
2018-07-05T18:40:58.095Z,18.93
2018-07-05T18:43:45.287Z,18.50
2018-07-05T18:46:33.050Z,20.13
2018-07-05T18:49:14.402Z,19.60
2018-07-05T18:52:02.466Z,17.90
2018-07-05T18:54:49.886Z,20.10
2018-07-05T18:57:37.723Z,19.97
2018-07-05T19:00:25.254Z,22.27
2018-07-05T19:03:12.963Z,19.07
2018-07-05T19:06:00.382Z,18.37
2018-07-05T19:08:48.736Z,19.17
2018-07-05T19:11:36.031Z,19.40
2018-07-05T19:14:23.437Z,18.90
2018-07-05T19:17:10.583Z,20.57
2018-07-05T19:19:58.586Z,18.07
2018-07-05T19:22:45.778Z,19.73
2018-07-05T19:25:33.207Z,18.83
2018-07-05T19:28:20.726Z,17.80
2018-07-05T19:31:08.392Z,20.30
2018-07-05T19:33:55.745Z,19.00
2018-07-05T19:36:43.455Z,18.37
2018-07-05T19:39:31.946Z,18.83
2018-07-05T19:42:19.471Z,19.50
2018-07-05T19:45:07.008Z,19.90
2018-07-05T19:47:54.557Z,18.60
2018-07-05T19:50:41.943Z,19.00
2018-07-05T19:53:29.450Z,18.33
2018-07-05T19:56:16.715Z,17.43
2018-07-05T19:59:04.302Z,17.93
2018-07-05T20:01:51.759Z,18.80
2018-07-05T20:04:39.483Z,17.77
2018-07-05T20:07:27.109Z,18.70
2018-07-05T20:10:14.714Z,20.10
2018-07-05T20:13:02.065Z,17.17
2018-07-05T20:15:49.820Z,17.77
2018-07-05T20:18:37.342Z,18.07
2018-07-05T20:21:25.295Z,17.27
2018-07-05T20:24:12.719Z,18.87
2018-07-05T20:27:00.491Z,18.40
2018-07-05T20:29:47.883Z,17.43
2018-07-05T20:32:35.634Z,18.73
2018-07-05T20:35:17.138Z,18.33
2018-07-05T20:37:59.023Z,19.87
2018-07-05T20:40:46.367Z,17.47
2018-07-05T20:43:34.056Z,18.10
2018-07-05T20:46:21.587Z,18.40
2018-07-05T20:49:09.385Z,18.87
2018-07-05T20:51:56.539Z,18.03
2018-07-05T20:54:44.197Z,18.27
2018-07-05T20:57:25.654Z,19.90
2018-07-05T21:00:13.124Z,17.40
2018-07-05T21:03:00.311Z,18.17
2018-07-05T21:05:47.870Z,20.00
2018-07-05T21:08:35.567Z,19.10
2018-07-05T21:11:23.711Z,18.33
2018-07-05T21:14:11.239Z,17.03
2018-07-05T21:16:58.898Z,18.90
2018-07-05T21:19:46.195Z,17.90
2018-07-05T21:22:33.753Z,19.50
2018-07-05T21:25:21.041Z,19.20
2018-07-05T21:28:09.133Z,19.03
2018-07-05T21:30:50.514Z,19.43
2018-07-05T21:33:38.069Z,17.87
2018-07-05T21:36:25.625Z,17.50
2018-07-05T21:39:13.129Z,19.50
2018-07-05T21:42:00.295Z,17.63
2018-07-05T21:44:48.081Z,18.90
2018-07-05T21:47:35.341Z,18.20
2018-07-05T21:50:22.842Z,18.40
2018-07-05T21:53:10.191Z,20.00
2018-07-05T21:55:58.015Z,18.50
2018-07-05T21:58:45.256Z,19.20
2018-07-05T22:01:32.924Z,17.83
2018-07-05T22:04:20.098Z,17.43
2018-07-05T22:07:01.534Z,17.17
2018-07-05T22:09:49.006Z,17.80
2018-07-05T22:12:37.890Z,18.10
2018-07-05T22:15:25.104Z,17.67
2018-07-05T22:18:17.433Z,18.23
2018-07-05T22:21:10.259Z,18.33
2018-07-05T22:24:02.729Z,17.00
2018-07-05T22:26:50.276Z,18.50
2018-07-05T22:29:42.600Z,18.47
2018-07-05T22:32:29.771Z,18.73
2018-07-05T22:35:17.270Z,19.07
2018-07-05T22:38:04.696Z,18.90
2018-07-05T22:40:52.439Z,18.20
2018-07-05T22:43:33.719Z,17.63
2018-07-05T22:46:21.356Z,19.80
2018-07-05T22:49:08.779Z,17.17
2018-07-05T22:51:56.515Z,19.10
2018-07-05T22:54:43.839Z,17.27
2018-07-05T22:57:31.367Z,17.03
2018-07-05T23:00:19.059Z,17.50
2018-07-05T23:03:06.586Z,18.60
2018-07-05T23:05:54.060Z,18.57
2018-07-05T23:08:41.713Z,17.10
2018-07-05T23:11:29.211Z,17.93
2018-07-05T23:14:18.357Z,19.60
2018-07-05T23:17:05.646Z,19.20
2018-07-05T23:19:53.167Z,18.40
2018-07-05T23:22:40.601Z,17.47
2018-07-05T23:25:28.122Z,18.53
2018-07-05T23:28:15.437Z,17.73
2018-07-05T23:31:03.214Z,17.73
2018-07-05T23:33:50.402Z,19.43
2018-07-05T23:36:37.830Z,18.70
2018-07-05T23:39:25.229Z,18.60
2018-07-05T23:42:12.953Z,19.30
2018-07-05T23:45:00.448Z,18.07
2018-07-05T23:47:48.149Z,18.33
2018-07-05T23:50:35.573Z,19.93
2018-07-05T23:53:23.254Z,19.97
2018-07-05T23:56:10.736Z,20.03
2018-07-05T23:58:58.678Z,17.17
